createdAt,value
2019-02-12T00:00:19.595Z,0.55
2019-02-12T00:02:48.554Z,0.67
2019-02-12T00:05:19.651Z,0.61
2019-02-12T00:07:48.305Z,0.56
2019-02-12T00:10:17.022Z,0.56
2019-02-12T00:12:47.513Z,0.44
2019-02-12T00:15:16.174Z,0.46
2019-02-12T00:17:44.836Z,0.60
2019-02-12T00:20:14.643Z,0.46
2019-02-12T00:22:43.444Z,0.43
2019-02-12T00:25:12.147Z,0.43
2019-02-12T00:27:43.605Z,0.47
2019-02-12T00:30:12.470Z,0.45
2019-02-12T00:32:41.255Z,0.42
2019-02-12T00:35:09.939Z,0.36
2019-02-12T00:37:38.630Z,0.36
2019-02-12T00:40:09.231Z,0.38
2019-02-12T00:42:37.888Z,0.33
2019-02-12T00:45:09.412Z,0.35
2019-02-12T00:47:38.804Z,0.38
2019-02-12T00:50:09.822Z,0.42
2019-02-12T00:52:38.530Z,0.34
2019-02-12T00:55:08.752Z,0.28
2019-02-12T00:57:39.174Z,0.26
2019-02-12T01:00:11.033Z,0.12
2019-02-12T01:02:39.836Z,0.14
2019-02-12T01:05:09.050Z,0.00
2019-02-12T01:07:37.713Z,0.10
2019-02-12T01:10:09.476Z,0.04
2019-02-12T01:12:39.209Z,0.03
2019-02-12T01:15:11.037Z,0.05
2019-02-12T01:17:40.542Z,0.10
2019-02-12T01:20:11.420Z,0.04
2019-02-12T01:22:40.074Z,0.16
2019-02-12T01:25:09.553Z,0.07
2019-02-12T01:27:38.274Z,0.14
2019-02-12T01:30:12.477Z,0.14
2019-02-12T01:32:41.168Z,0.15
2019-02-12T01:35:11.246Z,0.05
2019-02-12T01:37:39.923Z,0.01
2019-02-12T01:40:11.723Z,0.07
2019-02-12T01:42:40.614Z,0.12
2019-02-12T01:45:12.689Z,0.10
2019-02-12T01:47:41.480Z,0.09
2019-02-12T01:50:12.110Z,0.05
2019-02-12T01:52:40.778Z,0.13
2019-02-12T01:55:09.676Z,0.15
2019-02-12T01:57:39.846Z,0.14
2019-02-12T02:00:11.599Z,0.19
2019-02-12T02:02:40.282Z,0.08
2019-02-12T02:05:10.650Z,0.08
2019-02-12T02:07:39.269Z,0.00
2019-02-12T02:10:13.692Z,-0.05
2019-02-12T02:12:42.477Z,-0.03
2019-02-12T02:15:12.486Z,-0.20
2019-02-12T02:17:43.809Z,-0.08
2019-02-12T02:20:14.431Z,0.00
2019-02-12T02:22:43.176Z,-0.20
2019-02-12T02:25:14.790Z,-0.28
2019-02-12T02:27:45.860Z,-0.46
2019-02-12T02:30:15.466Z,-0.47
2019-02-12T02:32:44.596Z,-0.41
2019-02-12T02:35:13.317Z,-0.29
2019-02-12T02:37:42.083Z,-0.13
2019-02-12T02:40:11.240Z,-0.16
2019-02-12T02:42:40.039Z,-0.18
2019-02-12T02:45:11.476Z,-0.13
2019-02-12T02:47:40.166Z,-0.15
2019-02-12T02:50:10.555Z,-0.31
2019-02-12T02:52:40.919Z,-0.24
2019-02-12T02:55:10.953Z,-0.25
2019-02-12T02:57:39.726Z,-0.15
2019-02-12T03:00:11.189Z,-0.05
2019-02-12T03:02:39.859Z,-0.04
2019-02-12T03:05:10.994Z,0.01
2019-02-12T03:07:39.832Z,0.01
2019-02-12T03:10:10.948Z,-0.04
2019-02-12T03:12:39.630Z,-0.09
2019-02-12T03:15:10.769Z,-0.19
2019-02-12T03:17:41.118Z,-0.21
2019-02-12T03:20:14.038Z,-0.18
2019-02-12T03:22:42.881Z,-0.23
2019-02-12T03:25:11.567Z,-0.25
2019-02-12T03:27:40.364Z,-0.28
2019-02-12T03:30:13.108Z,-0.25
2019-02-12T03:32:42.128Z,-0.23
2019-02-12T03:35:11.645Z,-0.22
2019-02-12T03:37:40.426Z,-0.29
2019-02-12T03:40:11.871Z,-0.22
2019-02-12T03:42:40.558Z,-0.23
2019-02-12T03:45:11.810Z,-0.28
2019-02-12T03:47:40.493Z,-0.23
2019-02-12T03:50:13.174Z,-0.18
2019-02-12T03:52:41.859Z,-0.13
2019-02-12T03:55:12.709Z,-0.19
2019-02-12T03:57:41.456Z,-0.24
2019-02-12T04:00:13.138Z,-0.17
2019-02-12T04:03:01.303Z,-0.24
2019-02-12T04:05:30.069Z,-0.31
2019-02-12T04:07:58.751Z,-0.24
2019-02-12T04:10:27.563Z,-0.24
2019-02-12T04:12:56.328Z,-0.25
2019-02-12T04:15:25.033Z,-0.28
2019-02-12T04:17:53.822Z,-0.31
2019-02-12T04:20:22.489Z,-0.37
2019-02-12T04:22:51.175Z,-0.32
2019-02-12T04:25:19.970Z,-0.42
2019-02-12T04:27:48.667Z,-0.38
2019-02-12T04:30:17.446Z,-0.46
2019-02-12T04:32:46.124Z,-0.41
2019-02-12T04:35:14.944Z,-0.38
2019-02-12T04:37:43.542Z,-0.42
2019-02-12T04:40:12.524Z,-0.34
2019-02-12T04:42:41.279Z,-0.37
2019-02-12T04:45:11.904Z,-0.44
2019-02-12T04:47:42.046Z,-0.51
2019-02-12T04:50:13.790Z,-0.41
2019-02-12T04:52:42.509Z,-0.47
2019-02-12T04:55:15.360Z,-0.22
2019-02-12T04:57:44.050Z,-0.31
2019-02-12T05:00:15.815Z,-0.33
2019-02-12T05:02:44.604Z,-0.39
2019-02-12T05:05:13.297Z,-0.40
2019-02-12T05:07:42.084Z,-0.29
2019-02-12T05:10:16.903Z,-0.20
2019-02-12T05:12:45.699Z,-0.26
2019-02-12T05:15:14.378Z,-0.35
2019-02-12T05:17:43.494Z,-0.38
2019-02-12T05:20:14.931Z,-0.33
2019-02-12T05:22:44.041Z,-0.49
2019-02-12T05:25:13.447Z,-0.51
2019-02-12T05:27:42.221Z,-0.45
2019-02-12T05:30:13.052Z,-0.44
2019-02-12T05:32:41.753Z,-0.47
2019-02-12T05:35:10.435Z,-0.47
2019-02-12T05:37:39.457Z,-0.57
2019-02-12T05:40:10.233Z,-0.53
2019-02-12T05:42:38.937Z,-0.50
2019-02-12T05:45:12.596Z,-0.50
2019-02-12T05:47:41.285Z,-0.43
2019-02-12T05:50:15.150Z,-0.49
2019-02-12T05:52:53.281Z,-0.58
2019-02-12T05:55:14.266Z,-0.58
2019-02-12T05:57:43.002Z,-0.62
2019-02-12T06:00:15.416Z,-0.59
2019-02-12T06:02:44.312Z,-0.56
2019-02-12T06:05:27.450Z,-0.46
2019-02-12T06:07:56.316Z,-0.37
2019-02-12T06:10:25.007Z,-0.43
2019-02-12T06:12:53.720Z,-0.35
2019-02-12T06:15:22.482Z,-0.41
2019-02-12T06:17:51.104Z,-0.03
2019-02-12T06:20:19.863Z,-0.25
2019-02-12T06:22:48.543Z,-0.40
2019-02-12T06:25:17.338Z,-0.30
2019-02-12T06:27:46.022Z,-0.37
2019-02-12T06:30:14.707Z,-0.53
2019-02-12T06:32:43.389Z,-0.49
2019-02-12T06:35:12.183Z,-0.30
2019-02-12T06:37:40.971Z,-0.37
2019-02-12T06:40:12.720Z,-0.25
2019-02-12T06:42:41.517Z,-0.14
2019-02-12T06:45:12.455Z,-0.18
2019-02-12T06:47:41.648Z,-0.12
2019-02-12T06:50:12.391Z,-0.24
2019-02-12T06:52:41.173Z,-0.24
2019-02-12T06:55:10.750Z,-0.14
2019-02-12T06:57:39.476Z,-0.25
2019-02-12T07:00:15.633Z,-0.20
2019-02-12T07:03:16.143Z,-0.03
2019-02-12T07:05:50.889Z,0.05
2019-02-12T07:08:22.752Z,-0.03
2019-02-12T07:10:57.362Z,0.01
2019-02-12T07:13:31.780Z,-0.03
2019-02-12T07:16:03.265Z,0.07
2019-02-12T07:18:47.194Z,0.06
2019-02-12T07:21:28.206Z,0.11
2019-02-12T07:24:14.668Z,0.01
2019-02-12T07:27:02.718Z,0.05
2019-02-12T07:29:56.796Z,-0.13
2019-02-12T07:32:40.739Z,-0.01
2019-02-12T07:35:27.343Z,0.07
2019-02-12T07:38:28.303Z,0.08
2019-02-12T07:41:19.946Z,0.07
2019-02-12T07:43:57.055Z,0.12
2019-02-12T07:46:34.596Z,0.10
2019-02-12T07:49:23.865Z,-0.08
2019-02-12T07:52:04.425Z,0.08
2019-02-12T07:54:54.513Z,0.07
2019-02-12T07:57:51.771Z,0.17
2019-02-12T08:00:29.597Z,0.18
2019-02-12T08:03:04.522Z,0.30
2019-02-12T08:05:52.854Z,0.23
2019-02-12T08:08:36.496Z,0.57
2019-02-12T08:11:08.250Z,0.33
2019-02-12T08:14:01.212Z,0.26
2019-02-12T08:16:41.784Z,0.45
2019-02-12T08:19:25.511Z,0.19
2019-02-12T08:22:14.280Z,0.18
2019-02-12T08:24:51.801Z,0.55
2019-02-12T08:27:32.421Z,0.29
2019-02-12T08:30:35.927Z,0.54
2019-02-12T08:33:16.254Z,0.83
2019-02-12T08:36:15.272Z,0.62
2019-02-12T08:39:08.065Z,0.63
2019-02-12T08:42:03.815Z,0.70
2019-02-12T08:44:49.723Z,0.80
2019-02-12T08:47:21.420Z,0.71
2019-02-12T08:49:55.831Z,0.83
2019-02-12T08:52:38.846Z,0.76
2019-02-12T08:55:20.675Z,0.97
2019-02-12T08:58:01.120Z,0.98
2019-02-12T09:00:32.755Z,1.00
2019-02-12T09:03:37.909Z,0.97
2019-02-12T09:06:18.249Z,0.89
2019-02-12T09:09:09.584Z,0.84
2019-02-12T09:12:02.632Z,0.88
2019-02-12T09:14:43.202Z,1.04
2019-02-12T09:17:25.605Z,1.15
2019-02-12T09:19:59.940Z,1.08
2019-02-12T09:22:40.810Z,1.12
2019-02-12T09:25:12.480Z,0.83
2019-02-12T09:27:56.300Z,1.08
2019-02-12T09:30:28.071Z,1.13
2019-02-12T09:32:59.812Z,0.93
2019-02-12T09:35:31.467Z,1.00
2019-02-12T09:38:09.079Z,0.78
2019-02-12T09:40:49.639Z,0.92
2019-02-12T09:43:27.427Z,0.76
2019-02-12T09:46:17.227Z,0.68
2019-02-12T09:49:00.638Z,0.75
2019-02-12T09:51:51.869Z,0.87
2019-02-12T09:54:32.631Z,0.94
2019-02-12T09:57:17.742Z,0.92
2019-02-12T10:00:01.651Z,1.33
2019-02-12T10:02:45.486Z,0.87
2019-02-12T10:05:21.855Z,0.82
2019-02-12T10:08:19.315Z,0.69
2019-02-12T10:11:06.020Z,0.99
2019-02-12T10:13:49.563Z,0.93
2019-02-12T10:16:45.580Z,0.96
2019-02-12T10:19:34.069Z,0.76
2019-02-12T10:22:17.460Z,0.87
2019-02-12T10:24:52.188Z,0.91
2019-02-12T10:27:51.191Z,0.68
2019-02-12T10:30:35.041Z,0.62
2019-02-12T10:33:03.730Z,0.39
2019-02-12T10:35:32.405Z,0.71
2019-02-12T10:38:01.208Z,0.98
2019-02-12T10:40:29.877Z,1.08
2019-02-12T10:42:58.567Z,1.36
2019-02-12T10:45:27.434Z,1.59
2019-02-12T10:47:56.140Z,1.78
2019-02-12T10:50:24.936Z,1.48
2019-02-12T10:52:53.720Z,1.15
2019-02-12T10:55:22.627Z,1.39
2019-02-12T10:57:51.296Z,1.45
2019-02-12T11:00:20.217Z,1.82
2019-02-12T11:02:48.973Z,2.22
2019-02-12T11:05:17.766Z,1.73
2019-02-12T11:07:46.479Z,1.49
2019-02-12T11:10:15.247Z,1.02
2019-02-12T11:12:43.939Z,0.92
2019-02-12T11:15:12.716Z,1.17
2019-02-12T11:17:41.504Z,1.10
2019-02-12T11:20:10.605Z,1.04
2019-02-12T11:22:39.212Z,0.52
2019-02-12T11:25:09.410Z,0.65
2019-02-12T11:27:38.027Z,0.68
2019-02-12T11:30:10.059Z,0.91
2019-02-12T11:32:41.591Z,1.21
2019-02-12T11:35:13.327Z,1.34
2019-02-12T11:37:42.051Z,1.29
2019-02-12T11:40:14.438Z,1.22
2019-02-12T11:42:43.216Z,1.11
2019-02-12T11:45:13.970Z,1.42
2019-02-12T11:47:42.642Z,1.25
2019-02-12T11:50:13.371Z,0.96
2019-02-12T11:52:42.057Z,1.09
2019-02-12T11:55:12.997Z,1.10
2019-02-12T11:57:41.688Z,1.01
2019-02-12T12:00:19.191Z,1.12
2019-02-12T12:02:47.969Z,1.37
2019-02-12T12:05:16.720Z,1.00
2019-02-12T12:07:45.443Z,1.14
2019-02-12T12:10:14.123Z,1.42
2019-02-12T12:12:43.632Z,1.03
2019-02-12T12:15:14.371Z,1.15
2019-02-12T12:17:43.162Z,1.44
2019-02-12T12:20:19.344Z,1.36
2019-02-12T12:22:48.109Z,1.36
2019-02-12T12:25:16.802Z,0.93
2019-02-12T12:27:45.584Z,0.85
2019-02-12T12:30:15.503Z,1.20
2019-02-12T12:32:44.395Z,1.28
2019-02-12T12:35:13.382Z,1.70
2019-02-12T12:37:43.305Z,1.51
2019-02-12T12:40:12.891Z,1.02
2019-02-12T12:42:42.209Z,1.10
2019-02-12T12:45:13.469Z,1.24
2019-02-12T12:47:43.794Z,1.25
2019-02-12T12:50:13.400Z,1.21
2019-02-12T12:52:42.172Z,1.44
2019-02-12T12:55:11.319Z,1.62
2019-02-12T12:57:42.098Z,1.49
2019-02-12T13:00:12.896Z,1.08
2019-02-12T13:02:41.744Z,1.03
2019-02-12T13:05:11.076Z,0.96
2019-02-12T13:07:41.153Z,1.10
2019-02-12T13:10:15.587Z,0.92
2019-02-12T13:12:44.368Z,0.75
2019-02-12T13:15:14.490Z,0.73
2019-02-12T13:17:43.173Z,0.67
2019-02-12T13:20:19.848Z,0.78
2019-02-12T13:22:48.644Z,0.78
2019-02-12T13:25:17.425Z,0.74
2019-02-12T13:27:46.108Z,0.59
2019-02-12T13:30:19.304Z,0.69
2019-02-12T13:32:48.302Z,0.94
2019-02-12T13:35:18.643Z,0.93
2019-02-12T13:37:50.086Z,1.29
2019-02-12T13:40:18.765Z,1.08
2019-02-12T13:42:47.546Z,0.93
2019-02-12T13:45:17.065Z,0.88
2019-02-12T13:47:45.842Z,0.77
2019-02-12T13:50:14.639Z,0.70
2019-02-12T13:52:43.789Z,0.92
2019-02-12T13:55:17.414Z,0.77
2019-02-12T13:57:43.473Z,0.69
2019-02-12T14:00:18.902Z,0.75
2019-02-12T14:02:47.896Z,0.65
2019-02-12T14:05:24.256Z,0.66
2019-02-12T14:07:53.163Z,0.63
2019-02-12T14:10:21.967Z,0.65
2019-02-12T14:12:50.817Z,0.80
2019-02-12T14:15:21.281Z,0.82
2019-02-12T14:17:50.264Z,0.80
2019-02-12T14:20:19.167Z,0.73
2019-02-12T14:22:48.557Z,0.65
2019-02-12T14:25:25.054Z,0.71
2019-02-12T14:27:47.869Z,0.69
2019-02-12T14:30:22.094Z,0.78
2019-02-12T14:32:52.527Z,0.58
2019-02-12T14:35:24.177Z,0.56
2019-02-12T14:37:52.850Z,0.65
2019-02-12T14:40:22.348Z,0.82
2019-02-12T14:42:51.275Z,0.63
2019-02-12T14:45:20.786Z,0.64
2019-02-12T14:47:49.951Z,0.57
2019-02-12T14:50:22.529Z,0.69
2019-02-12T14:52:52.405Z,0.76
2019-02-12T14:55:21.310Z,0.69
2019-02-12T14:57:50.017Z,0.79
2019-02-12T15:00:19.733Z,0.77
2019-02-12T15:02:49.701Z,0.58
2019-02-12T15:05:21.824Z,0.68
2019-02-12T15:07:50.474Z,0.60
2019-02-12T15:10:19.394Z,0.57
2019-02-12T15:12:48.388Z,0.55
2019-02-12T15:15:18.809Z,0.54
2019-02-12T15:17:47.824Z,0.49
2019-02-12T15:20:16.698Z,0.55
2019-02-12T15:22:45.681Z,0.56
2019-02-12T15:25:16.013Z,0.52
2019-02-12T15:27:45.005Z,0.60
2019-02-12T15:30:21.124Z,0.55
2019-02-12T15:32:49.957Z,0.50
2019-02-12T15:35:20.282Z,0.47
2019-02-12T15:37:50.441Z,0.55
2019-02-12T15:40:20.681Z,0.60
2019-02-12T15:42:49.616Z,0.64
2019-02-12T15:45:23.279Z,0.55
2019-02-12T15:47:52.114Z,0.69
2019-02-12T15:50:23.376Z,0.47
2019-02-12T15:52:53.251Z,0.42
2019-02-12T15:55:21.956Z,0.34
2019-02-12T15:57:56.331Z,0.41
2019-02-12T16:00:25.732Z,0.33
2019-02-12T16:02:57.986Z,0.33
2019-02-12T16:05:27.295Z,0.34
2019-02-12T16:07:57.682Z,0.28
2019-02-12T16:10:26.492Z,0.36
2019-02-12T16:12:55.461Z,0.34
2019-02-12T16:15:24.833Z,0.28
2019-02-12T16:17:55.058Z,0.23
2019-02-12T16:20:26.171Z,0.23
2019-02-12T16:22:55.380Z,0.26
2019-02-12T16:25:26.049Z,0.17
2019-02-12T16:27:55.176Z,0.06
2019-02-12T16:30:23.943Z,0.06
2019-02-12T16:32:52.946Z,0.18
2019-02-12T16:35:23.508Z,0.19
2019-02-12T16:37:53.113Z,0.21
2019-02-12T16:40:23.481Z,0.08
2019-02-12T16:42:54.988Z,-0.09
2019-02-12T16:45:37.430Z,-0.23
2019-02-12T16:48:07.042Z,-0.17
2019-02-12T16:50:39.889Z,-0.26
2019-02-12T16:53:08.194Z,-0.30
2019-02-12T16:55:37.012Z,-0.23
2019-02-12T16:58:05.967Z,-0.25
2019-02-12T17:00:34.940Z,-0.15
2019-02-12T17:03:05.446Z,-0.12
2019-02-12T17:05:35.015Z,-0.01
2019-02-12T17:08:04.853Z,-0.03
2019-02-12T17:10:35.439Z,-0.01
2019-02-12T17:13:04.792Z,0.14
2019-02-12T17:15:35.899Z,0.19
2019-02-12T17:18:06.527Z,0.10
2019-02-12T17:20:40.322Z,0.14
2019-02-12T17:23:10.509Z,0.14
2019-02-12T17:25:42.682Z,0.13
2019-02-12T17:28:12.091Z,0.18
2019-02-12T17:30:41.059Z,0.08
2019-02-12T17:33:10.123Z,0.07
2019-02-12T17:35:39.636Z,0.02
2019-02-12T17:38:08.641Z,-0.10
2019-02-12T17:40:39.224Z,-0.02
2019-02-12T17:43:07.960Z,0.06
2019-02-12T17:45:38.127Z,-0.07
2019-02-12T17:48:06.870Z,-0.05
2019-02-12T17:50:37.251Z,-0.03
2019-02-12T17:53:07.990Z,-0.06
2019-02-12T17:55:36.823Z,-0.17
2019-02-12T17:58:05.835Z,-0.10
2019-02-12T18:00:39.226Z,-0.14
2019-02-12T18:03:08.572Z,-0.20
2019-02-12T18:05:39.251Z,-0.13
2019-02-12T18:08:07.953Z,-0.13
2019-02-12T18:10:39.553Z,-0.21
2019-02-12T18:13:08.267Z,-0.17
2019-02-12T18:15:40.189Z,-0.20
2019-02-12T18:18:11.214Z,-0.26
2019-02-12T18:20:40.542Z,-0.29
2019-02-12T18:23:09.392Z,-0.21
2019-02-12T18:25:38.351Z,-0.18
2019-02-12T18:28:09.551Z,-0.24
2019-02-12T18:30:38.801Z,-0.27
2019-02-12T18:33:08.673Z,-0.15
2019-02-12T18:35:38.069Z,-0.20
2019-02-12T18:38:06.835Z,-0.20
2019-02-12T18:40:35.646Z,-0.27
2019-02-12T18:43:04.342Z,-0.20
2019-02-12T18:45:34.475Z,-0.26
2019-02-12T18:48:03.275Z,-0.22
2019-02-12T18:50:32.021Z,-0.21
2019-02-12T18:53:00.747Z,-0.28
2019-02-12T18:55:29.607Z,-0.24
2019-02-12T18:57:58.558Z,-0.12
2019-02-12T19:00:27.237Z,-0.10
2019-02-12T19:02:59.902Z,-0.18
2019-02-12T19:05:28.623Z,-0.15
2019-02-12T19:07:57.308Z,-0.21
2019-02-12T19:10:25.965Z,-0.29
2019-02-12T19:12:56.278Z,-0.15
2019-02-12T19:15:24.962Z,-0.15
2019-02-12T19:17:56.652Z,-0.20
2019-02-12T19:20:25.477Z,-0.30
2019-02-12T19:22:54.270Z,-0.30
2019-02-12T19:25:23.041Z,-0.27
2019-02-12T19:27:53.291Z,-0.23
2019-02-12T19:30:22.158Z,-0.24
2019-02-12T19:32:54.325Z,-0.20
2019-02-12T19:35:23.069Z,-0.28
2019-02-12T19:37:51.827Z,-0.33
2019-02-12T19:40:20.587Z,-0.29
2019-02-12T19:42:51.032Z,-0.28
2019-02-12T19:45:19.755Z,-0.26
2019-02-12T19:47:48.416Z,-0.29
2019-02-12T19:50:18.644Z,-0.28
2019-02-12T19:52:47.308Z,-0.31
2019-02-12T19:55:16.029Z,-0.31
2019-02-12T19:57:44.657Z,-0.26
2019-02-12T20:00:17.006Z,-0.25
2019-02-12T20:02:45.637Z,-0.19
2019-02-12T20:05:14.356Z,-0.21
2019-02-12T20:07:43.277Z,-0.11
2019-02-12T20:10:13.378Z,-0.19
2019-02-12T20:12:42.051Z,-0.12
2019-02-12T20:15:22.531Z,-0.20
2019-02-12T20:17:54.093Z,-0.18
2019-02-12T20:20:23.807Z,-0.21
2019-02-12T20:22:55.030Z,-0.24
2019-02-12T20:25:23.438Z,-0.02
2019-02-12T20:27:53.049Z,-0.03
2019-02-12T20:30:23.364Z,-0.04
2019-02-12T20:32:52.275Z,-0.07
2019-02-12T20:35:22.424Z,-0.16
2019-02-12T20:37:51.611Z,-0.24
2019-02-12T20:40:20.611Z,-0.16
2019-02-12T20:42:49.303Z,-0.20
2019-02-12T20:45:19.635Z,-0.21
2019-02-12T20:47:48.372Z,-0.04
2019-02-12T20:50:19.617Z,-0.08
2019-02-12T20:52:50.082Z,-0.13
2019-02-12T20:55:19.853Z,-0.20
2019-02-12T20:57:48.566Z,-0.20
2019-02-12T21:00:19.179Z,-0.27
2019-02-12T21:02:47.813Z,-0.22
2019-02-12T21:05:17.078Z,-0.05
2019-02-12T21:07:45.756Z,0.04
2019-02-12T21:10:19.106Z,-0.09
2019-02-12T21:12:47.761Z,-0.15
2019-02-12T21:15:19.235Z,-0.07
2019-02-12T21:17:47.867Z,-0.10
2019-02-12T21:20:16.483Z,0.08
2019-02-12T21:22:45.197Z,0.05
2019-02-12T21:25:16.628Z,0.02
2019-02-12T21:27:47.064Z,-0.08
2019-02-12T21:30:23.878Z,-0.17
2019-02-12T21:32:52.624Z,-0.22
2019-02-12T21:35:21.382Z,-0.24
2019-02-12T21:37:50.259Z,-0.37
2019-02-12T21:40:25.339Z,-0.32
2019-02-12T21:42:54.026Z,-0.21
2019-02-12T21:45:22.745Z,-0.18
2019-02-12T21:47:52.662Z,-0.17
2019-02-12T21:50:21.536Z,-0.18
2019-02-12T21:52:50.256Z,-0.19
2019-02-12T21:55:22.473Z,-0.11
2019-02-12T21:57:51.232Z,-0.17
2019-02-12T22:00:20.993Z,-0.05
2019-02-12T22:02:49.780Z,-0.06
2019-02-12T22:05:18.555Z,-0.16
2019-02-12T22:07:47.268Z,-0.08
2019-02-12T22:10:27.858Z,-0.18
2019-02-12T22:12:56.586Z,-0.18
2019-02-12T22:15:25.204Z,-0.22
2019-02-12T22:17:53.913Z,-0.33
2019-02-12T22:20:23.795Z,-0.20
2019-02-12T22:22:52.625Z,-0.18
2019-02-12T22:25:21.312Z,-0.08
2019-02-12T22:27:50.084Z,-0.14
2019-02-12T22:30:23.495Z,-0.12
2019-02-12T22:32:52.208Z,0.04
2019-02-12T22:35:20.917Z,-0.10
2019-02-12T22:37:49.534Z,-0.09
2019-02-12T22:40:18.822Z,-0.07
2019-02-12T22:42:47.447Z,-0.03
2019-02-12T22:45:21.017Z,0.16
2019-02-12T22:47:49.692Z,-0.09
2019-02-12T22:50:18.421Z,-0.16
2019-02-12T22:52:47.108Z,-0.17
2019-02-12T22:55:15.784Z,-0.23
2019-02-12T22:57:49.187Z,-0.22
2019-02-12T23:00:17.876Z,-0.22
2019-02-12T23:02:46.499Z,-0.25
2019-02-12T23:05:15.215Z,-0.25
2019-02-12T23:07:43.896Z,-0.30
2019-02-12T23:10:14.619Z,-0.25
2019-02-12T23:12:43.235Z,-0.16
2019-02-12T23:15:11.935Z,-0.24
2019-02-12T23:17:40.667Z,-0.15
2019-02-12T23:20:09.353Z,-0.14
2019-02-12T23:22:39.255Z,0.04
2019-02-12T23:25:08.046Z,-0.13
2019-02-12T23:27:36.663Z,-0.19
2019-02-12T23:30:10.222Z,-0.17
2019-02-12T23:32:38.917Z,-0.16
2019-02-12T23:35:07.851Z,0.04
2019-02-12T23:37:36.614Z,-0.04
2019-02-12T23:40:06.429Z,-0.15
2019-02-12T23:42:35.109Z,-0.26
2019-02-12T23:45:04.520Z,-0.24
2019-02-12T23:47:33.178Z,-0.22
2019-02-12T23:50:01.892Z,0.08
2019-02-12T23:52:30.571Z,-0.05
2019-02-12T23:54:59.284Z,-0.08
2019-02-12T23:57:27.977Z,0.03
2019-02-12T23:59:56.592Z,0.06
